sensor_id;sensor_type;location;lat;lon;timestamp;P1;durP1;ratioP1;P2;durP2;ratioP2
62071;SDS011;48031;48.542;13.232;2024-01-30T00:03:45;8.32;;;4.03;;
62071;SDS011;48031;48.542;13.232;2024-01-30T00:07:47;14.98;;;5.75;;
62071;SDS011;48031;48.542;13.232;2024-01-30T00:11:49;8.60;;;4.22;;
62071;SDS011;48031;48.542;13.232;2024-01-30T00:15:51;14.63;;;5.72;;
62071;SDS011;48031;48.542;13.232;2024-01-30T00:19:53;5.97;;;3.47;;
62071;SDS011;48031;48.542;13.232;2024-01-30T00:23:55;15.07;;;6.65;;
62071;SDS011;48031;48.542;13.232;2024-01-30T00:27:57;10.20;;;5.88;;
62071;SDS011;48031;48.542;13.232;2024-01-30T00:31:59;10.98;;;6.00;;
62071;SDS011;48031;48.542;13.232;2024-01-30T00:36:01;9.15;;;5.10;;
62071;SDS011;48031;48.542;13.232;2024-01-30T00:40:04;8.52;;;5.13;;
62071;SDS011;48031;48.542;13.232;2024-01-30T00:44:08;7.90;;;3.88;;
62071;SDS011;48031;48.542;13.232;2024-01-30T00:48:09;6.88;;;3.83;;
62071;SDS011;48031;48.542;13.232;2024-01-30T00:52:11;7.68;;;3.80;;
62071;SDS011;48031;48.542;13.232;2024-01-30T00:56:13;7.70;;;4.82;;
62071;SDS011;48031;48.542;13.232;2024-01-30T01:00:15;13.13;;;5.93;;
62071;SDS011;48031;48.542;13.232;2024-01-30T01:04:19;8.10;;;4.65;;
62071;SDS011;48031;48.542;13.232;2024-01-30T01:08:23;6.93;;;4.43;;
62071;SDS011;48031;48.542;13.232;2024-01-30T01:18:44;5.90;;;3.10;;
62071;SDS011;48031;48.542;13.232;2024-01-30T01:27:40;10.13;;;5.18;;
62071;SDS011;48031;48.542;13.232;2024-01-30T01:31:44;7.78;;;4.05;;
62071;SDS011;48031;48.542;13.232;2024-01-30T01:35:46;8.70;;;4.85;;
62071;SDS011;48031;48.542;13.232;2024-01-30T01:39:47;11.85;;;6.22;;
62071;SDS011;48031;48.542;13.232;2024-01-30T01:43:49;10.85;;;5.60;;
62071;SDS011;48031;48.542;13.232;2024-01-30T01:47:54;7.80;;;4.53;;
62071;SDS011;48031;48.542;13.232;2024-01-30T01:51:56;10.38;;;4.88;;
62071;SDS011;48031;48.542;13.232;2024-01-30T01:55:59;10.63;;;4.78;;
62071;SDS011;48031;48.542;13.232;2024-01-30T02:00:02;13.10;;;6.40;;
62071;SDS011;48031;48.542;13.232;2024-01-30T02:04:09;15.65;;;8.23;;
62071;SDS011;48031;48.542;13.232;2024-01-30T02:08:11;12.63;;;7.03;;
62071;SDS011;48031;48.542;13.232;2024-01-30T02:12:13;7.90;;;4.78;;
62071;SDS011;48031;48.542;13.232;2024-01-30T02:16:15;9.82;;;4.82;;
62071;SDS011;48031;48.542;13.232;2024-01-30T02:20:21;11.43;;;5.28;;
62071;SDS011;48031;48.542;13.232;2024-01-30T02:24:27;9.57;;;5.00;;
62071;SDS011;48031;48.542;13.232;2024-01-30T02:28:29;14.55;;;6.35;;
62071;SDS011;48031;48.542;13.232;2024-01-30T02:32:31;13.63;;;6.32;;
62071;SDS011;48031;48.542;13.232;2024-01-30T02:36:33;12.50;;;6.30;;
62071;SDS011;48031;48.542;13.232;2024-01-30T02:40:35;13.05;;;5.68;;
62071;SDS011;48031;48.542;13.232;2024-01-30T02:44:37;13.07;;;6.38;;
62071;SDS011;48031;48.542;13.232;2024-01-30T02:48:40;17.92;;;7.28;;
62071;SDS011;48031;48.542;13.232;2024-01-30T02:52:42;15.40;;;6.63;;
62071;SDS011;48031;48.542;13.232;2024-01-30T02:56:47;11.82;;;6.03;;
62071;SDS011;48031;48.542;13.232;2024-01-30T03:00:50;11.90;;;5.57;;
62071;SDS011;48031;48.542;13.232;2024-01-30T03:04:52;9.27;;;5.10;;
62071;SDS011;48031;48.542;13.232;2024-01-30T03:08:54;10.75;;;5.68;;
62071;SDS011;48031;48.542;13.232;2024-01-30T03:12:56;11.55;;;5.65;;
62071;SDS011;48031;48.542;13.232;2024-01-30T03:16:58;11.63;;;6.10;;
62071;SDS011;48031;48.542;13.232;2024-01-30T03:20:59;13.15;;;6.00;;
62071;SDS011;48031;48.542;13.232;2024-01-30T03:25:02;12.07;;;5.78;;
62071;SDS011;48031;48.542;13.232;2024-01-30T03:29:04;12.80;;;6.30;;
62071;SDS011;48031;48.542;13.232;2024-01-30T03:33:06;16.27;;;7.07;;
62071;SDS011;48031;48.542;13.232;2024-01-30T03:37:09;16.67;;;8.38;;
62071;SDS011;48031;48.542;13.232;2024-01-30T03:41:11;14.27;;;6.90;;
62071;SDS011;48031;48.542;13.232;2024-01-30T03:45:13;10.13;;;6.13;;
62071;SDS011;48031;48.542;13.232;2024-01-30T03:49:15;14.10;;;6.38;;
62071;SDS011;48031;48.542;13.232;2024-01-30T03:53:17;12.57;;;5.75;;
62071;SDS011;48031;48.542;13.232;2024-01-30T03:57:19;15.82;;;8.77;;
62071;SDS011;48031;48.542;13.232;2024-01-30T04:01:21;12.85;;;6.05;;
62071;SDS011;48031;48.542;13.232;2024-01-30T04:05:23;11.10;;;5.70;;
62071;SDS011;48031;48.542;13.232;2024-01-30T04:09:25;13.27;;;6.82;;
62071;SDS011;48031;48.542;13.232;2024-01-30T04:13:30;16.20;;;6.82;;
62071;SDS011;48031;48.542;13.232;2024-01-30T04:17:32;16.40;;;7.28;;
62071;SDS011;48031;48.542;13.232;2024-01-30T04:21:34;13.00;;;6.75;;
62071;SDS011;48031;48.542;13.232;2024-01-30T04:25:38;17.73;;;7.68;;
62071;SDS011;48031;48.542;13.232;2024-01-30T04:29:40;13.73;;;6.70;;
62071;SDS011;48031;48.542;13.232;2024-01-30T04:33:42;14.25;;;6.15;;
62071;SDS011;48031;48.542;13.232;2024-01-30T04:37:44;15.85;;;8.15;;
62071;SDS011;48031;48.542;13.232;2024-01-30T04:41:46;11.80;;;5.82;;
62071;SDS011;48031;48.542;13.232;2024-01-30T04:45:50;18.27;;;7.18;;
62071;SDS011;48031;48.542;13.232;2024-01-30T04:49:52;16.80;;;8.10;;
62071;SDS011;48031;48.542;13.232;2024-01-30T04:53:54;21.73;;;9.27;;
62071;SDS011;48031;48.542;13.232;2024-01-30T04:57:56;15.88;;;7.40;;
62071;SDS011;48031;48.542;13.232;2024-01-30T05:01:59;22.85;;;8.40;;
62071;SDS011;48031;48.542;13.232;2024-01-30T05:06:01;13.98;;;8.02;;
62071;SDS011;48031;48.542;13.232;2024-01-30T05:10:04;15.13;;;7.10;;
62071;SDS011;48031;48.542;13.232;2024-01-30T05:14:08;15.90;;;7.80;;
62071;SDS011;48031;48.542;13.232;2024-01-30T05:18:11;14.38;;;7.22;;
62071;SDS011;48031;48.542;13.232;2024-01-30T05:28:31;12.90;;;6.45;;
62071;SDS011;48031;48.542;13.232;2024-01-30T05:38:58;11.55;;;6.18;;
62071;SDS011;48031;48.542;13.232;2024-01-30T05:42:59;10.73;;;5.50;;
62071;SDS011;48031;48.542;13.232;2024-01-30T05:47:03;11.80;;;5.78;;
62071;SDS011;48031;48.542;13.232;2024-01-30T05:51:07;15.73;;;7.40;;
62071;SDS011;48031;48.542;13.232;2024-01-30T05:55:09;13.07;;;6.25;;
62071;SDS011;48031;48.542;13.232;2024-01-30T05:59:11;11.20;;;5.38;;
62071;SDS011;48031;48.542;13.232;2024-01-30T06:03:13;15.27;;;7.30;;
62071;SDS011;48031;48.542;13.232;2024-01-30T06:07:15;15.30;;;6.72;;
62071;SDS011;48031;48.542;13.232;2024-01-30T06:17:28;14.25;;;6.50;;
62071;SDS011;48031;48.542;13.232;2024-01-30T06:21:30;10.57;;;5.60;;
62071;SDS011;48031;48.542;13.232;2024-01-30T06:25:33;15.05;;;6.25;;
62071;SDS011;48031;48.542;13.232;2024-01-30T06:29:35;15.50;;;6.32;;
62071;SDS011;48031;48.542;13.232;2024-01-30T06:33:37;15.82;;;7.38;;
62071;SDS011;48031;48.542;13.232;2024-01-30T06:53:11;14.15;;;6.63;;
62071;SDS011;48031;48.542;13.232;2024-01-30T06:57:13;12.10;;;6.88;;
62071;SDS011;48031;48.542;13.232;2024-01-30T07:01:16;11.07;;;5.35;;
62071;SDS011;48031;48.542;13.232;2024-01-30T07:05:18;14.60;;;6.05;;
62071;SDS011;48031;48.542;13.232;2024-01-30T07:09:20;17.05;;;7.07;;
62071;SDS011;48031;48.542;13.232;2024-01-30T07:13:22;13.35;;;6.72;;
62071;SDS011;48031;48.542;13.232;2024-01-30T07:17:24;17.10;;;7.93;;
62071;SDS011;48031;48.542;13.232;2024-01-30T07:21:26;15.82;;;7.82;;
62071;SDS011;48031;48.542;13.232;2024-01-30T07:25:30;16.40;;;7.20;;
62071;SDS011;48031;48.542;13.232;2024-01-30T07:29:32;11.60;;;5.97;;
62071;SDS011;48031;48.542;13.232;2024-01-30T07:33:33;18.40;;;8.73;;
62071;SDS011;48031;48.542;13.232;2024-01-30T07:37:36;21.10;;;9.98;;
62071;SDS011;48031;48.542;13.232;2024-01-30T07:41:38;13.95;;;7.25;;
62071;SDS011;48031;48.542;13.232;2024-01-30T07:45:40;15.63;;;7.10;;
62071;SDS011;48031;48.542;13.232;2024-01-30T07:49:42;18.23;;;8.93;;
62071;SDS011;48031;48.542;13.232;2024-01-30T07:53:54;11.93;;;6.82;;
62071;SDS011;48031;48.542;13.232;2024-01-30T07:57:57;14.35;;;7.00;;
62071;SDS011;48031;48.542;13.232;2024-01-30T08:02:00;13.77;;;7.03;;
62071;SDS011;48031;48.542;13.232;2024-01-30T08:06:02;16.40;;;7.47;;
62071;SDS011;48031;48.542;13.232;2024-01-30T08:10:05;16.42;;;7.35;;
62071;SDS011;48031;48.542;13.232;2024-01-30T08:14:07;28.52;;;10.27;;
62071;SDS011;48031;48.542;13.232;2024-01-30T08:18:09;12.65;;;5.80;;
62071;SDS011;48031;48.542;13.232;2024-01-30T08:22:12;15.70;;;7.63;;
62071;SDS011;48031;48.542;13.232;2024-01-30T08:26:14;18.63;;;8.07;;
62071;SDS011;48031;48.542;13.232;2024-01-30T08:30:16;18.23;;;8.45;;
62071;SDS011;48031;48.542;13.232;2024-01-30T08:34:17;13.07;;;7.20;;
62071;SDS011;48031;48.542;13.232;2024-01-30T08:38:20;14.45;;;7.45;;
62071;SDS011;48031;48.542;13.232;2024-01-30T08:42:22;14.48;;;7.38;;
62071;SDS011;48031;48.542;13.232;2024-01-30T08:46:24;21.73;;;10.52;;
62071;SDS011;48031;48.542;13.232;2024-01-30T08:50:26;20.17;;;8.55;;
62071;SDS011;48031;48.542;13.232;2024-01-30T08:54:28;19.02;;;7.70;;
62071;SDS011;48031;48.542;13.232;2024-01-30T08:58:31;13.20;;;6.93;;
62071;SDS011;48031;48.542;13.232;2024-01-30T09:02:33;16.73;;;7.93;;
62071;SDS011;48031;48.542;13.232;2024-01-30T09:06:35;19.50;;;9.15;;
62071;SDS011;48031;48.542;13.232;2024-01-30T09:10:37;18.27;;;9.55;;
62071;SDS011;48031;48.542;13.232;2024-01-30T09:14:39;16.98;;;7.78;;
62071;SDS011;48031;48.542;13.232;2024-01-30T09:18:44;21.50;;;10.07;;
62071;SDS011;48031;48.542;13.232;2024-01-30T09:22:49;24.50;;;11.32;;
62071;SDS011;48031;48.542;13.232;2024-01-30T09:26:51;19.70;;;9.25;;
62071;SDS011;48031;48.542;13.232;2024-01-30T09:30:52;13.35;;;7.00;;
62071;SDS011;48031;48.542;13.232;2024-01-30T09:34:55;20.05;;;8.52;;
62071;SDS011;48031;48.542;13.232;2024-01-30T09:38:57;15.60;;;7.82;;
62071;SDS011;48031;48.542;13.232;2024-01-30T09:42:59;20.38;;;9.80;;
62071;SDS011;48031;48.542;13.232;2024-01-30T09:47:01;17.00;;;8.68;;
62071;SDS011;48031;48.542;13.232;2024-01-30T09:51:07;19.02;;;8.77;;
62071;SDS011;48031;48.542;13.232;2024-01-30T09:55:10;15.75;;;7.65;;
62071;SDS011;48031;48.542;13.232;2024-01-30T09:59:14;15.77;;;7.03;;
62071;SDS011;48031;48.542;13.232;2024-01-30T10:03:16;14.18;;;7.45;;
62071;SDS011;48031;48.542;13.232;2024-01-30T10:07:20;19.42;;;8.82;;
62071;SDS011;48031;48.542;13.232;2024-01-30T10:11:23;12.98;;;6.85;;
62071;SDS011;48031;48.542;13.232;2024-01-30T10:15:26;19.17;;;8.30;;
62071;SDS011;48031;48.542;13.232;2024-01-30T10:19:29;14.55;;;7.07;;
62071;SDS011;48031;48.542;13.232;2024-01-30T10:23:32;14.25;;;7.40;;
62071;SDS011;48031;48.542;13.232;2024-01-30T10:27:36;19.58;;;8.02;;
62071;SDS011;48031;48.542;13.232;2024-01-30T10:31:38;24.00;;;10.43;;
62071;SDS011;48031;48.542;13.232;2024-01-30T10:35:41;17.45;;;8.35;;
62071;SDS011;48031;48.542;13.232;2024-01-30T10:39:44;17.05;;;8.32;;
62071;SDS011;48031;48.542;13.232;2024-01-30T10:43:50;18.00;;;10.13;;
62071;SDS011;48031;48.542;13.232;2024-01-30T10:48:01;16.17;;;8.80;;
62071;SDS011;48031;48.542;13.232;2024-01-30T10:52:06;19.48;;;9.25;;
62071;SDS011;48031;48.542;13.232;2024-01-30T10:56:10;19.50;;;8.43;;
62071;SDS011;48031;48.542;13.232;2024-01-30T11:00:14;16.60;;;9.18;;
62071;SDS011;48031;48.542;13.232;2024-01-30T11:04:17;22.15;;;11.68;;
62071;SDS011;48031;48.542;13.232;2024-01-30T11:08:23;15.90;;;9.13;;
62071;SDS011;48031;48.542;13.232;2024-01-30T11:12:27;17.60;;;8.68;;
62071;SDS011;48031;48.542;13.232;2024-01-30T11:16:31;18.23;;;8.45;;
62071;SDS011;48031;48.542;13.232;2024-01-30T11:20:34;20.33;;;9.95;;
62071;SDS011;48031;48.542;13.232;2024-01-30T11:24:47;19.10;;;9.52;;
62071;SDS011;48031;48.542;13.232;2024-01-30T11:28:52;20.90;;;10.45;;
62071;SDS011;48031;48.542;13.232;2024-01-30T11:32:58;16.27;;;9.30;;
62071;SDS011;48031;48.542;13.232;2024-01-30T11:37:09;17.65;;;9.40;;
62071;SDS011;48031;48.542;13.232;2024-01-30T11:41:15;20.20;;;9.95;;
62071;SDS011;48031;48.542;13.232;2024-01-30T11:45:17;18.90;;;10.18;;
62071;SDS011;48031;48.542;13.232;2024-01-30T11:49:21;18.65;;;10.18;;
62071;SDS011;48031;48.542;13.232;2024-01-30T11:53:25;25.35;;;10.98;;
62071;SDS011;48031;48.542;13.232;2024-01-30T11:57:27;19.20;;;9.68;;
62071;SDS011;48031;48.542;13.232;2024-01-30T12:01:29;16.08;;;9.13;;
62071;SDS011;48031;48.542;13.232;2024-01-30T12:05:34;18.85;;;9.77;;
62071;SDS011;48031;48.542;13.232;2024-01-30T12:09:36;26.15;;;10.82;;
62071;SDS011;48031;48.542;13.232;2024-01-30T12:13:39;22.98;;;11.35;;
62071;SDS011;48031;48.542;13.232;2024-01-30T12:17:41;25.52;;;12.18;;
62071;SDS011;48031;48.542;13.232;2024-01-30T12:21:43;18.08;;;9.88;;
62071;SDS011;48031;48.542;13.232;2024-01-30T12:25:45;20.63;;;10.02;;
62071;SDS011;48031;48.542;13.232;2024-01-30T12:29:47;17.75;;;9.70;;
62071;SDS011;48031;48.542;13.232;2024-01-30T12:33:49;17.45;;;9.82;;
62071;SDS011;48031;48.542;13.232;2024-01-30T12:37:51;20.65;;;10.00;;
62071;SDS011;48031;48.542;13.232;2024-01-30T12:41:53;17.30;;;9.85;;
62071;SDS011;48031;48.542;13.232;2024-01-30T12:45:55;18.70;;;9.25;;
62071;SDS011;48031;48.542;13.232;2024-01-30T12:49:57;16.92;;;8.68;;
62071;SDS011;48031;48.542;13.232;2024-01-30T12:54:03;18.40;;;10.00;;
62071;SDS011;48031;48.542;13.232;2024-01-30T12:58:06;19.08;;;10.60;;
62071;SDS011;48031;48.542;13.232;2024-01-30T13:02:09;18.38;;;9.77;;
62071;SDS011;48031;48.542;13.232;2024-01-30T13:06:11;19.08;;;9.98;;
62071;SDS011;48031;48.542;13.232;2024-01-30T13:10:13;20.45;;;9.50;;
62071;SDS011;48031;48.542;13.232;2024-01-30T13:14:15;20.00;;;10.82;;
62071;SDS011;48031;48.542;13.232;2024-01-30T13:18:17;21.52;;;10.57;;
62071;SDS011;48031;48.542;13.232;2024-01-30T13:22:20;25.83;;;11.10;;
62071;SDS011;48031;48.542;13.232;2024-01-30T13:26:25;17.90;;;9.98;;
62071;SDS011;48031;48.542;13.232;2024-01-30T13:30:28;21.15;;;9.90;;
62071;SDS011;48031;48.542;13.232;2024-01-30T13:34:29;21.50;;;10.25;;
62071;SDS011;48031;48.542;13.232;2024-01-30T13:38:32;15.85;;;8.88;;
62071;SDS011;48031;48.542;13.232;2024-01-30T13:42:35;14.43;;;7.85;;
62071;SDS011;48031;48.542;13.232;2024-01-30T13:46:37;19.15;;;9.82;;
62071;SDS011;48031;48.542;13.232;2024-01-30T13:50:40;17.98;;;10.25;;
62071;SDS011;48031;48.542;13.232;2024-01-30T13:54:42;19.33;;;9.85;;
62071;SDS011;48031;48.542;13.232;2024-01-30T13:58:44;27.10;;;10.80;;
62071;SDS011;48031;48.542;13.232;2024-01-30T14:02:46;22.90;;;11.02;;
62071;SDS011;48031;48.542;13.232;2024-01-30T14:06:48;19.67;;;10.88;;
62071;SDS011;48031;48.542;13.232;2024-01-30T14:11:01;19.65;;;11.00;;
62071;SDS011;48031;48.542;13.232;2024-01-30T14:15:03;20.80;;;10.95;;
62071;SDS011;48031;48.542;13.232;2024-01-30T14:19:20;25.55;;;11.40;;
62071;SDS011;48031;48.542;13.232;2024-01-30T14:23:22;18.92;;;10.30;;
62071;SDS011;48031;48.542;13.232;2024-01-30T14:27:24;18.10;;;9.88;;
62071;SDS011;48031;48.542;13.232;2024-01-30T14:31:26;20.27;;;10.55;;
62071;SDS011;48031;48.542;13.232;2024-01-30T14:35:28;16.60;;;9.27;;
62071;SDS011;48031;48.542;13.232;2024-01-30T14:39:30;21.42;;;9.63;;
62071;SDS011;48031;48.542;13.232;2024-01-30T14:43:33;20.75;;;10.10;;
62071;SDS011;48031;48.542;13.232;2024-01-30T14:47:35;18.52;;;8.98;;
62071;SDS011;48031;48.542;13.232;2024-01-30T14:51:38;18.60;;;9.63;;
62071;SDS011;48031;48.542;13.232;2024-01-30T14:55:41;19.95;;;10.48;;
62071;SDS011;48031;48.542;13.232;2024-01-30T14:59:42;16.90;;;9.48;;
62071;SDS011;48031;48.542;13.232;2024-01-30T15:03:45;18.20;;;9.20;;
62071;SDS011;48031;48.542;13.232;2024-01-30T15:07:47;22.60;;;10.68;;
62071;SDS011;48031;48.542;13.232;2024-01-30T15:11:49;24.05;;;10.95;;
62071;SDS011;48031;48.542;13.232;2024-01-30T15:15:52;22.33;;;10.65;;
62071;SDS011;48031;48.542;13.232;2024-01-30T15:19:54;20.67;;;10.63;;
62071;SDS011;48031;48.542;13.232;2024-01-30T15:23:56;19.58;;;10.18;;
62071;SDS011;48031;48.542;13.232;2024-01-30T15:27:58;25.52;;;12.73;;
62071;SDS011;48031;48.542;13.232;2024-01-30T15:32:00;19.42;;;9.35;;
62071;SDS011;48031;48.542;13.232;2024-01-30T15:36:02;21.83;;;10.20;;
62071;SDS011;48031;48.542;13.232;2024-01-30T15:40:05;18.75;;;8.55;;
62071;SDS011;48031;48.542;13.232;2024-01-30T15:44:29;15.35;;;7.38;;
62071;SDS011;48031;48.542;13.232;2024-01-30T15:48:52;15.25;;;7.97;;
62071;SDS011;48031;48.542;13.232;2024-01-30T15:53:14;20.88;;;10.23;;
62071;SDS011;48031;48.542;13.232;2024-01-30T15:57:35;18.95;;;9.13;;
62071;SDS011;48031;48.542;13.232;2024-01-30T16:01:56;17.02;;;7.50;;
62071;SDS011;48031;48.542;13.232;2024-01-30T16:06:17;21.75;;;10.82;;
62071;SDS011;48031;48.542;13.232;2024-01-30T16:10:39;19.80;;;8.70;;
62071;SDS011;48031;48.542;13.232;2024-01-30T16:15:01;13.15;;;6.85;;
62071;SDS011;48031;48.542;13.232;2024-01-30T16:19:23;19.08;;;9.05;;
62071;SDS011;48031;48.542;13.232;2024-01-30T16:23:50;13.75;;;7.13;;
62071;SDS011;48031;48.542;13.232;2024-01-30T16:28:14;7.38;;;3.80;;
62071;SDS011;48031;48.542;13.232;2024-01-30T16:32:43;12.90;;;6.03;;
62071;SDS011;48031;48.542;13.232;2024-01-30T16:37:06;8.00;;;4.03;;
62071;SDS011;48031;48.542;13.232;2024-01-30T16:41:33;12.05;;;6.30;;
62071;SDS011;48031;48.542;13.232;2024-01-30T16:46:02;9.88;;;5.22;;
62071;SDS011;48031;48.542;13.232;2024-01-30T16:50:30;9.73;;;4.95;;
62071;SDS011;48031;48.542;13.232;2024-01-30T16:54:56;20.02;;;10.20;;
62071;SDS011;48031;48.542;13.232;2024-01-30T16:59:24;15.55;;;5.88;;
62071;SDS011;48031;48.542;13.232;2024-01-30T17:03:50;10.85;;;5.03;;
62071;SDS011;48031;48.542;13.232;2024-01-30T17:08:18;11.45;;;4.82;;
62071;SDS011;48031;48.542;13.232;2024-01-30T17:12:45;14.60;;;5.67;;
62071;SDS011;48031;48.542;13.232;2024-01-30T17:17:12;14.23;;;6.38;;
62071;SDS011;48031;48.542;13.232;2024-01-30T17:21:42;16.27;;;7.43;;
62071;SDS011;48031;48.542;13.232;2024-01-30T17:26:10;19.77;;;9.10;;
62071;SDS011;48031;48.542;13.232;2024-01-30T17:30:36;13.40;;;6.47;;
62071;SDS011;48031;48.542;13.232;2024-01-30T17:35:04;11.45;;;5.80;;
62071;SDS011;48031;48.542;13.232;2024-01-30T17:39:28;13.07;;;6.45;;
62071;SDS011;48031;48.542;13.232;2024-01-30T17:43:56;15.88;;;7.35;;
62071;SDS011;48031;48.542;13.232;2024-01-30T17:48:22;6.70;;;3.80;;
62071;SDS011;48031;48.542;13.232;2024-01-30T17:52:43;8.00;;;4.57;;
62071;SDS011;48031;48.542;13.232;2024-01-30T17:57:10;10.00;;;5.18;;
62071;SDS011;48031;48.542;13.232;2024-01-30T18:01:32;12.43;;;5.60;;
62071;SDS011;48031;48.542;13.232;2024-01-30T18:05:35;17.25;;;7.85;;
62071;SDS011;48031;48.542;13.232;2024-01-30T18:09:37;12.88;;;6.00;;
62071;SDS011;48031;48.542;13.232;2024-01-30T18:13:39;14.73;;;6.78;;
62071;SDS011;48031;48.542;13.232;2024-01-30T18:17:41;23.60;;;10.15;;
62071;SDS011;48031;48.542;13.232;2024-01-30T18:21:43;13.30;;;4.55;;
62071;SDS011;48031;48.542;13.232;2024-01-30T18:25:45;12.52;;;5.97;;
62071;SDS011;48031;48.542;13.232;2024-01-30T18:29:48;12.77;;;6.20;;
62071;SDS011;48031;48.542;13.232;2024-01-30T18:33:53;29.60;;;12.30;;
62071;SDS011;48031;48.542;13.232;2024-01-30T18:37:56;18.50;;;8.40;;
62071;SDS011;48031;48.542;13.232;2024-01-30T18:41:59;19.65;;;8.20;;
62071;SDS011;48031;48.542;13.232;2024-01-30T18:46:01;18.60;;;8.10;;
62071;SDS011;48031;48.542;13.232;2024-01-30T18:50:03;14.70;;;6.38;;
62071;SDS011;48031;48.542;13.232;2024-01-30T18:54:05;17.98;;;7.70;;
62071;SDS011;48031;48.542;13.232;2024-01-30T18:58:07;19.80;;;8.02;;
62071;SDS011;48031;48.542;13.232;2024-01-30T19:02:10;14.85;;;6.28;;
62071;SDS011;48031;48.542;13.232;2024-01-30T19:06:13;17.40;;;7.50;;
62071;SDS011;48031;48.542;13.232;2024-01-30T19:10:16;12.02;;;5.30;;
62071;SDS011;48031;48.542;13.232;2024-01-30T19:14:32;15.52;;;6.70;;
62071;SDS011;48031;48.542;13.232;2024-01-30T19:18:36;17.08;;;6.70;;
62071;SDS011;48031;48.542;13.232;2024-01-30T19:22:38;20.25;;;9.52;;
62071;SDS011;48031;48.542;13.232;2024-01-30T19:26:41;12.30;;;5.05;;
62071;SDS011;48031;48.542;13.232;2024-01-30T19:30:44;14.40;;;7.10;;
62071;SDS011;48031;48.542;13.232;2024-01-30T19:34:45;12.68;;;6.22;;
62071;SDS011;48031;48.542;13.232;2024-01-30T19:38:47;24.33;;;10.35;;
62071;SDS011;48031;48.542;13.232;2024-01-30T19:42:50;8.98;;;5.20;;
62071;SDS011;48031;48.542;13.232;2024-01-30T19:46:53;14.55;;;7.13;;
62071;SDS011;48031;48.542;13.232;2024-01-30T19:50:55;11.15;;;4.80;;
62071;SDS011;48031;48.542;13.232;2024-01-30T19:54:58;11.15;;;5.28;;
62071;SDS011;48031;48.542;13.232;2024-01-30T19:59:00;10.23;;;4.50;;
62071;SDS011;48031;48.542;13.232;2024-01-30T20:03:02;7.90;;;4.68;;
62071;SDS011;48031;48.542;13.232;2024-01-30T20:07:05;16.90;;;6.80;;
62071;SDS011;48031;48.542;13.232;2024-01-30T20:11:13;13.20;;;6.88;;
62071;SDS011;48031;48.542;13.232;2024-01-30T20:15:17;12.70;;;5.53;;
62071;SDS011;48031;48.542;13.232;2024-01-30T20:19:19;14.73;;;6.40;;
62071;SDS011;48031;48.542;13.232;2024-01-30T20:23:22;9.05;;;4.75;;
62071;SDS011;48031;48.542;13.232;2024-01-30T20:27:24;7.75;;;4.13;;
62071;SDS011;48031;48.542;13.232;2024-01-30T20:31:28;9.93;;;4.68;;
62071;SDS011;48031;48.542;13.232;2024-01-30T20:35:30;15.70;;;6.78;;
62071;SDS011;48031;48.542;13.232;2024-01-30T20:39:32;14.77;;;8.00;;
62071;SDS011;48031;48.542;13.232;2024-01-30T20:43:34;17.55;;;8.55;;
62071;SDS011;48031;48.542;13.232;2024-01-30T20:47:36;17.73;;;7.05;;
62071;SDS011;48031;48.542;13.232;2024-01-30T20:51:38;18.30;;;9.23;;
62071;SDS011;48031;48.542;13.232;2024-01-30T20:55:40;9.80;;;4.80;;
62071;SDS011;48031;48.542;13.232;2024-01-30T20:59:42;16.65;;;8.27;;
62071;SDS011;48031;48.542;13.232;2024-01-30T21:03:44;21.83;;;9.55;;
62071;SDS011;48031;48.542;13.232;2024-01-30T21:07:52;18.60;;;7.60;;
62071;SDS011;48031;48.542;13.232;2024-01-30T21:11:55;16.73;;;8.02;;
62071;SDS011;48031;48.542;13.232;2024-01-30T21:15:56;14.63;;;6.57;;
62071;SDS011;48031;48.542;13.232;2024-01-30T21:20:00;10.38;;;5.43;;
62071;SDS011;48031;48.542;13.232;2024-01-30T21:24:03;17.17;;;7.40;;
62071;SDS011;48031;48.542;13.232;2024-01-30T21:28:05;18.50;;;7.55;;
62071;SDS011;48031;48.542;13.232;2024-01-30T21:32:07;10.30;;;4.95;;
62071;SDS011;48031;48.542;13.232;2024-01-30T21:36:09;12.98;;;5.65;;
62071;SDS011;48031;48.542;13.232;2024-01-30T21:40:11;16.55;;;8.15;;
62071;SDS011;48031;48.542;13.232;2024-01-30T21:44:16;16.02;;;6.90;;
62071;SDS011;48031;48.542;13.232;2024-01-30T21:48:18;16.08;;;6.47;;
62071;SDS011;48031;48.542;13.232;2024-01-30T21:52:20;14.95;;;6.88;;
62071;SDS011;48031;48.542;13.232;2024-01-30T21:56:22;18.25;;;5.78;;
62071;SDS011;48031;48.542;13.232;2024-01-30T22:00:24;21.52;;;10.27;;
62071;SDS011;48031;48.542;13.232;2024-01-30T22:04:26;12.18;;;5.68;;
62071;SDS011;48031;48.542;13.232;2024-01-30T22:08:28;13.02;;;5.65;;
62071;SDS011;48031;48.542;13.232;2024-01-30T22:12:30;13.90;;;6.57;;
62071;SDS011;48031;48.542;13.232;2024-01-30T22:16:32;19.05;;;8.73;;
62071;SDS011;48031;48.542;13.232;2024-01-30T22:20:34;8.75;;;4.45;;
62071;SDS011;48031;48.542;13.232;2024-01-30T22:24:36;13.98;;;6.85;;
62071;SDS011;48031;48.542;13.232;2024-01-30T22:28:38;12.02;;;4.68;;
62071;SDS011;48031;48.542;13.232;2024-01-30T22:32:40;17.75;;;8.63;;
62071;SDS011;48031;48.542;13.232;2024-01-30T22:36:42;14.23;;;6.65;;
62071;SDS011;48031;48.542;13.232;2024-01-30T22:40:44;14.70;;;6.65;;
62071;SDS011;48031;48.542;13.232;2024-01-30T22:44:46;9.20;;;4.57;;
62071;SDS011;48031;48.542;13.232;2024-01-30T22:48:48;12.73;;;5.80;;
62071;SDS011;48031;48.542;13.232;2024-01-30T22:52:50;13.73;;;6.75;;
62071;SDS011;48031;48.542;13.232;2024-01-30T22:56:53;11.77;;;5.40;;
62071;SDS011;48031;48.542;13.232;2024-01-30T23:00:55;15.45;;;7.03;;
62071;SDS011;48031;48.542;13.232;2024-01-30T23:04:57;23.83;;;10.10;;
62071;SDS011;48031;48.542;13.232;2024-01-30T23:08:59;14.82;;;5.28;;
62071;SDS011;48031;48.542;13.232;2024-01-30T23:13:01;11.82;;;5.72;;
62071;SDS011;48031;48.542;13.232;2024-01-30T23:17:04;15.00;;;5.78;;
62071;SDS011;48031;48.542;13.232;2024-01-30T23:21:06;15.38;;;5.85;;
62071;SDS011;48031;48.542;13.232;2024-01-30T23:25:08;12.50;;;5.28;;
62071;SDS011;48031;48.542;13.232;2024-01-30T23:29:10;7.28;;;4.13;;
62071;SDS011;48031;48.542;13.232;2024-01-30T23:33:12;10.35;;;4.60;;
62071;SDS011;48031;48.542;13.232;2024-01-30T23:37:15;12.02;;;6.07;;
62071;SDS011;48031;48.542;13.232;2024-01-30T23:41:17;8.57;;;3.90;;
62071;SDS011;48031;48.542;13.232;2024-01-30T23:45:19;13.20;;;5.45;;
62071;SDS011;48031;48.542;13.232;2024-01-30T23:49:21;9.32;;;4.22;;
62071;SDS011;48031;48.542;13.232;2024-01-30T23:53:23;10.93;;;5.30;;
62071;SDS011;48031;48.542;13.232;2024-01-30T23:57:25;11.98;;;6.13;;
